Portada
METAR-TAF:

METAR-TAF

Aeroports :

Maurici, Maurici

latitud: 20-26S, longitud: 057-40E, altitud: 55 m

Observació

L'informe es va fer fa 41 minuts, a les 09:00 UTC
Vent 13 kt del Sud/Sud-Est amb ràfegues de 23 kt
Temperatura 24°C
Humitat 50%
Pressió 1016 hPa
Visibilitat 10 km o més
Escasses núvols a una alçada de 2000 ft

METAR: FIMP 310900Z 16013G23KT 9999 FEW020 24/13 Q1016

Hora: 13:41 (09:41 UTC)

Pronòstic

L'informe es va fer fa 4 hores i 41 minuts, a les 05:00 UTC
Pronòstic vàlid del 31 a les 06 UTC al 01 a les 12 UTC
Vent 15 kt del Sud amb ràfegues de 30 kt
Visibilitat 10 km o més
Escasses núvols a una alçada de 1800 ft

TAF: FIMP 310500Z 3106/0112 18015G30KT 9999 FEW018

Observacions i pronòstics meteorològics de més de 4000 aeroports (METAR i TAF).

Les estacions disponibles són els punts grocs i vermells al mapa.

Posi el ratolí al punt desitjat per veure el nom de l'estació.

Feu clic per veure les observacions i els pronòstics meteorològics.

Per canviar el mapa: feu clic els botons verds amb una creu de color negre per apropar; al botó verd amb un guió per allunyar la imatge; o en les fletxes verdes per a mapes adjacents.


METAR-TAF: